Time;durP1;ratioP1;P1;durP2;ratioP2;P2;SDS_P1;SDS_P2;PMS_P1;PMS_P2;Temp;Humidity;BMP_temperature;BMP_pressure;BME280_temperature;BME280_humidity;BME280_pressure;Samples;Min_cycle;Max_cycle;Signal;HPM_P1;HPM_P2
2022/03/05 00:01:29;;;;;;;11.90;8.40;;;2.30;67.00;;;;;;5019103;28;20212;-92
2022/03/05 00:03:55;;;;;;;12.17;9.37;;;2.30;67.20;;;;;;5018336;28;20176;-84
2022/03/05 00:06:20;;;;;;;11.40;8.40;;;2.20;67.30;;;;;;5017888;28;20180;-88
2022/03/05 00:08:46;;;;;;;11.90;8.70;;;2.30;67.30;;;;;;5037671;28;20171;-85
2022/03/05 00:11:12;;;;;;;12.20;8.83;;;2.30;67.00;;;;;;5020079;28;20186;-86
2022/03/05 00:13:37;;;;;;;11.63;8.50;;;2.30;66.80;;;;;;5036423;28;20215;-87
2022/03/05 00:16:04;;;;;;;13.73;9.30;;;2.20;67.10;;;;;;5039769;28;20250;-89
2022/03/05 00:18:30;;;;;;;12.50;9.13;;;2.20;67.20;;;;;;5019156;28;20179;-91
2022/03/05 00:20:56;;;;;;;11.47;8.80;;;2.10;67.40;;;;;;5035917;28;20211;-94
2022/03/05 00:23:22;;;;;;;10.63;8.50;;;2.10;67.40;;;;;;5035550;28;20175;-88
2022/03/05 00:25:48;;;;;;;12.47;9.13;;;2.10;67.30;;;;;;5017433;28;20616;-93
2022/03/05 00:28:15;;;;;;;13.70;9.93;;;2.10;67.50;;;;;;5017962;28;20542;-92
2022/03/05 00:30:41;;;;;;;13.47;9.47;;;2.10;67.60;;;;;;5036044;28;20258;-94
2022/03/05 00:33:07;;;;;;;10.93;8.37;;;2.10;67.70;;;;;;5036782;28;20234;-89
2022/03/05 00:35:33;;;;;;;13.03;9.60;;;2.20;67.60;;;;;;5021034;28;20271;-93
2022/03/05 00:37:59;;;;;;;12.90;9.43;;;2.20;67.60;;;;;;5036903;28;20218;-90
2022/03/05 00:40:25;;;;;;;12.73;9.57;;;2.20;67.50;;;;;;5037503;28;20237;-91
2022/03/05 00:42:51;;;;;;;11.23;9.30;;;2.20;67.70;;;;;;5038464;28;20686;-94
2022/03/05 00:45:17;;;;;;;11.73;9.40;;;2.20;67.80;;;;;;5035843;28;20175;-90
2022/03/05 00:47:43;;;;;;;10.63;8.60;;;2.10;68.10;;;;;;5021358;28;20234;-87
2022/03/05 00:50:09;;;;;;;11.10;8.53;;;2.20;67.90;;;;;;5031675;28;20176;-88
2022/03/05 00:52:37;;;;;;;12.17;9.30;;;2.30;68.10;;;;;;5050410;28;20187;-90
2022/03/05 00:55:12;;;;;;;12.40;9.53;;;2.30;68.00;;;;;;5049504;28;20178;-85
2022/03/05 00:57:40;;;;;;;11.43;8.93;;;2.30;68.00;;;;;;5046049;28;20169;-89
2022/03/05 01:00:08;;;;;;;12.27;8.80;;;2.30;68.10;;;;;;5042757;28;20205;-92
2022/03/05 01:02:34;;;;;;;11.07;8.40;;;2.30;68.30;;;;;;5022668;28;20206;-92
2022/03/05 01:05:00;;;;;;;12.30;9.37;;;2.20;68.30;;;;;;5039536;28;20171;-89
2022/03/05 01:07:26;;;;;;;13.10;8.77;;;2.20;68.50;;;;;;5020730;28;20187;-89
2022/03/05 01:09:52;;;;;;;11.33;8.37;;;2.20;68.50;;;;;;5020649;28;20223;-89
2022/03/05 01:12:17;;;;;;;10.23;8.20;;;2.10;68.50;;;;;;5052051;28;20178;-89
2022/03/05 01:14:43;;;;;;;11.37;8.47;;;2.00;68.60;;;;;;5051404;28;20178;-90
2022/03/05 01:17:09;;;;;;;11.70;8.77;;;2.00;68.70;;;;;;5041722;28;20166;-87
2022/03/05 01:19:34;;;;;;;14.40;8.73;;;2.00;68.80;;;;;;5022728;28;20180;-87
2022/03/05 01:22:00;;;;;;;11.90;8.53;;;2.00;68.90;;;;;;5037714;28;20613;-88
2022/03/05 01:24:26;;;;;;;15.93;9.40;;;2.20;68.80;;;;;;5002884;28;20647;-87
2022/03/05 01:26:52;;;;;;;11.33;8.67;;;2.00;68.90;;;;;;5036730;28;20213;-87
2022/03/05 01:29:18;;;;;;;12.30;8.33;;;2.00;69.10;;;;;;5036866;28;20254;-87
2022/03/05 01:31:43;;;;;;;12.47;8.30;;;2.00;69.50;;;;;;5018791;28;20233;-86
2022/03/05 01:34:09;;;;;;;12.87;8.93;;;2.00;69.70;;;;;;5021602;28;20235;-87
2022/03/05 01:36:35;;;;;;;11.80;8.30;;;2.00;70.60;;;;;;5046593;28;20695;-87
2022/03/05 01:39:01;;;;;;;14.47;9.10;;;1.90;70.10;;;;;;5032553;28;20182;-86
2022/03/05 01:41:30;;;;;;;12.03;9.27;;;1.90;70.20;;;;;;5048728;28;20246;-88
2022/03/05 01:43:57;;;;;;;13.13;8.80;;;1.80;70.60;;;;;;5022713;28;20186;-89
2022/03/05 01:46:29;;;;;;;11.00;8.47;;;1.90;71.00;;;;;;5019625;28;20179;-88
2022/03/05 01:48:55;;;;;;;13.57;9.63;;;1.80;71.10;;;;;;5019244;28;20656;-88
2022/03/05 01:51:21;;;;;;;11.30;8.63;;;1.80;71.60;;;;;;5019182;28;20179;-91
2022/03/05 01:53:47;;;;;;;11.10;9.00;;;1.90;71.60;;;;;;5019001;28;20188;-91
2022/03/05 01:56:13;;;;;;;14.17;9.13;;;1.80;71.70;;;;;;5019346;28;20633;-88
2022/03/05 01:58:39;;;;;;;11.43;8.50;;;1.90;72.10;;;;;;5036940;28;20179;-90
2022/03/05 02:01:05;;;;;;;11.67;8.50;;;1.90;72.30;;;;;;5043475;28;20299;-86
2022/03/05 02:03:31;;;;;;;12.40;8.90;;;1.80;72.70;;;;;;5043010;28;20179;-90
2022/03/05 02:05:56;;;;;;;11.60;8.23;;;1.80;72.90;;;;;;5038790;28;20175;-94
2022/03/05 02:08:22;;;;;;;12.47;8.70;;;1.90;73.00;;;;;;5037186;28;20175;-88
2022/03/05 02:10:48;;;;;;;15.27;9.97;;;1.90;72.80;;;;;;5036781;28;20181;-94
2022/03/05 02:13:13;;;;;;;14.30;9.43;;;2.00;73.00;;;;;;5037274;28;20181;-94
2022/03/05 02:15:39;;;;;;;12.77;8.90;;;2.00;72.70;;;;;;5040126;28;20528;-95
2022/03/05 02:18:08;;;;;;;9.37;7.57;;;2.10;72.60;;;;;;5041710;28;20179;-95
2022/03/05 02:20:33;;;;;;;9.73;7.87;;;2.10;72.50;;;;;;5041511;28;20260;-94
2022/03/05 02:22:59;;;;;;;11.10;8.43;;;2.10;72.60;;;;;;5037134;28;20170;-95
2022/03/05 02:25:25;;;;;;;14.43;8.33;;;2.00;72.60;;;;;;5019750;28;20278;-94
2022/03/05 02:27:51;;;;;;;11.93;9.07;;;2.00;72.70;;;;;;5018308;28;20182;-88
2022/03/05 02:30:19;;;;;;;11.07;8.50;;;2.00;72.80;;;;;;5018093;28;20245;-86
2022/03/05 02:32:45;;;;;;;11.47;8.87;;;2.00;73.00;;;;;;5023637;28;20580;-86
2022/03/05 02:35:11;;;;;;;10.57;8.43;;;2.00;73.10;;;;;;5037203;28;20191;-85
2022/03/05 02:37:36;;;;;;;9.57;7.70;;;2.10;72.90;;;;;;5036648;28;20195;-90
2022/03/05 02:40:03;;;;;;;10.17;8.40;;;2.10;72.80;;;;;;5034872;28;20194;-86
2022/03/05 02:42:29;;;;;;;14.00;8.97;;;2.10;73.00;;;;;;5031381;28;20670;-90
2022/03/05 02:44:54;;;;;;;10.90;8.20;;;2.10;73.20;;;;;;5004484;28;20199;-92
2022/03/05 02:47:20;;;;;;;11.03;8.67;;;2.20;73.10;;;;;;5018583;28;20188;-90
2022/03/05 02:49:46;;;;;;;11.27;8.60;;;2.20;73.00;;;;;;5017607;28;20207;-87
2022/03/05 02:52:12;;;;;;;11.23;8.57;;;2.20;72.80;;;;;;5019147;28;20215;-95
2022/03/05 02:54:37;;;;;;;10.67;8.07;;;2.10;73.10;;;;;;5039820;28;20210;-96
2022/03/05 02:57:03;;;;;;;10.23;8.40;;;2.10;73.20;;;;;;5036202;28;20178;-87
2022/03/05 02:59:29;;;;;;;10.20;8.33;;;2.10;73.40;;;;;;5035252;28;20198;-88
2022/03/05 03:01:56;;;;;;;10.00;8.60;;;2.10;73.40;;;;;;5035240;28;20218;-90
2022/03/05 03:04:22;;;;;;;12.57;9.30;;;2.10;73.50;;;;;;5035385;28;20620;-88
2022/03/05 03:06:47;;;;;;;10.73;8.13;;;2.10;73.90;;;;;;5035712;28;20182;-88
2022/03/05 03:09:13;;;;;;;10.60;8.27;;;2.10;73.70;;;;;;5035595;28;20179;-87
2022/03/05 03:11:39;;;;;;;12.00;8.43;;;2.00;73.40;;;;;;5041630;28;20642;-86
2022/03/05 03:14:05;;;;;;;10.37;7.93;;;2.00;73.50;;;;;;5038299;28;20198;-87
2022/03/05 03:16:30;;;;;;;11.50;8.53;;;1.90;73.90;;;;;;5018214;28;20186;-88
2022/03/05 03:18:56;;;;;;;10.27;7.87;;;1.90;73.60;;;;;;5039965;28;20203;-86
2022/03/05 03:21:22;;;;;;;9.00;7.40;;;1.90;73.50;;;;;;5043434;28;20250;-88
2022/03/05 03:23:47;;;;;;;8.03;7.23;;;1.90;73.60;;;;;;5048549;28;20180;-85
2022/03/05 03:26:13;;;;;;;8.70;7.47;;;2.00;73.50;;;;;;5010296;28;20183;-88
2022/03/05 03:28:39;;;;;;;9.67;7.40;;;2.00;73.60;;;;;;5044101;28;20172;-88
2022/03/05 03:31:07;;;;;;;9.13;7.87;;;2.00;73.50;;;;;;5021732;28;20173;-93
2022/03/05 03:33:33;;;;;;;7.63;6.70;;;1.90;73.50;;;;;;5019212;28;20212;-91
2022/03/05 03:35:59;;;;;;;10.00;7.20;;;1.80;73.80;;;;;;5018746;28;20205;-89
2022/03/05 03:38:25;;;;;;;9.97;7.00;;;1.90;73.70;;;;;;5036590;28;20169;-88
2022/03/05 03:40:52;;;;;;;8.17;7.17;;;1.90;73.40;;;;;;5039766;28;20206;-92
2022/03/05 03:43:17;;;;;;;9.20;7.23;;;2.00;73.10;;;;;;5044230;28;20210;-87
2022/03/05 03:45:43;;;;;;;7.83;7.03;;;1.90;73.10;;;;;;5046107;28;20197;-92
2022/03/05 03:48:09;;;;;;;10.83;7.27;;;1.90;73.20;;;;;;5018240;28;20183;-88
2022/03/05 03:50:35;;;;;;;7.90;6.20;;;1.80;72.90;;;;;;5034904;28;20182;-88
2022/03/05 03:53:01;;;;;;;7.87;6.87;;;1.90;72.50;;;;;;5034191;28;20230;-90
2022/03/05 03:55:27;;;;;;;7.37;6.67;;;1.90;72.70;;;;;;5034353;28;20169;-87
2022/03/05 03:57:52;;;;;;;7.67;6.30;;;1.90;72.90;;;;;;5016579;28;20211;-85
2022/03/05 04:00:19;;;;;;;7.30;6.33;;;2.00;72.50;;;;;;5033959;28;20175;-85
2022/03/05 04:02:46;;;;;;;7.33;6.63;;;2.10;72.10;;;;;;5033864;28;20184;-89
2022/03/05 04:05:13;;;;;;;8.70;6.90;;;2.30;72.00;;;;;;5034228;28;20190;-84
2022/03/05 04:10:24;;;;;;;7.07;6.47;;;2.20;71.70;;;;;;5034433;28;20567;-85
2022/03/05 04:12:50;;;;;;;7.10;6.40;;;2.20;71.80;;;;;;5015689;28;20226;-84
2022/03/05 04:15:17;;;;;;;7.33;6.47;;;2.10;72.00;;;;;;5016638;28;20187;-88
2022/03/05 04:17:43;;;;;;;8.53;6.90;;;2.10;72.40;;;;;;5025897;28;20175;-91
2022/03/05 04:20:10;;;;;;;6.77;6.10;;;2.20;72.10;;;;;;5046407;28;20215;-86
2022/03/05 04:22:36;;;;;;;8.30;6.80;;;2.20;71.90;;;;;;5032952;28;20190;-86
2022/03/05 04:25:02;;;;;;;8.00;6.63;;;2.10;72.00;;;;;;5045627;28;20179;-89
2022/03/05 04:27:28;;;;;;;8.13;6.93;;;2.10;72.40;;;;;;5034831;28;20174;-91
2022/03/05 04:29:54;;;;;;;7.17;6.47;;;2.10;72.10;;;;;;5035508;28;20182;-91
2022/03/05 04:32:20;;;;;;;7.43;6.67;;;2.10;72.10;;;;;;5034740;28;20219;-94
2022/03/05 04:34:45;;;;;;;7.47;6.77;;;2.00;72.20;;;;;;5035126;28;20536;-93
2022/03/05 04:37:11;;;;;;;7.27;6.37;;;2.00;72.40;;;;;;5035386;28;20259;-90
2022/03/05 04:39:37;;;;;;;7.00;6.30;;;2.10;72.20;;;;;;5036243;28;20247;-85
2022/03/05 04:42:06;;;;;;;7.77;6.60;;;2.00;72.60;;;;;;5037928;28;20294;-90
2022/03/05 04:44:32;;;;;;;8.43;7.03;;;1.90;72.50;;;;;;5036275;28;20184;-89
2022/03/05 04:46:58;;;;;;;7.73;6.60;;;2.00;72.70;;;;;;5032299;28;20523;-84
2022/03/05 04:49:23;;;;;;;9.40;6.63;;;2.10;72.50;;;;;;5051275;28;20201;-86
2022/03/05 04:51:50;;;;;;;7.07;6.37;;;2.10;72.40;;;;;;5027257;28;20207;-85
2022/03/05 04:54:16;;;;;;;9.00;6.80;;;2.10;72.20;;;;;;5043457;28;20176;-85
2022/03/05 04:56:42;;;;;;;8.93;6.43;;;2.10;72.50;;;;;;5038649;28;20176;-85
2022/03/05 04:59:08;;;;;;;9.53;6.50;;;2.00;72.80;;;;;;5034163;28;20170;-91
2022/03/05 05:01:33;;;;;;;7.90;6.40;;;2.00;72.90;;;;;;5038409;28;20260;-87
2022/03/05 05:03:59;;;;;;;8.20;6.60;;;2.10;73.00;;;;;;5030137;28;20198;-85
2022/03/05 05:06:25;;;;;;;9.30;7.30;;;2.00;72.90;;;;;;5050331;28;20181;-87
2022/03/05 05:08:51;;;;;;;8.53;7.47;;;2.10;73.20;;;;;;5053283;28;20164;-84
2022/03/05 05:11:17;;;;;;;12.43;8.10;;;2.10;74.10;;;;;;5047491;28;20179;-88
2022/03/05 05:13:43;;;;;;;8.87;7.93;;;2.10;73.80;;;;;;5019413;28;20222;-85
2022/03/05 05:16:09;;;;;;;11.70;8.00;;;2.00;73.60;;;;;;5034138;28;20640;-87
2022/03/05 05:18:34;;;;;;;10.50;8.10;;;2.00;74.10;;;;;;5036972;28;20634;-86
2022/03/05 05:21:01;;;;;;;11.03;7.97;;;2.10;74.00;;;;;;5036813;28;20276;-89
2022/03/05 05:23:27;;;;;;;10.17;7.37;;;2.00;74.30;;;;;;5017527;28;20180;-87
2022/03/05 05:25:53;;;;;;;8.37;7.13;;;2.00;74.00;;;;;;5042349;28;20267;-84
2022/03/05 05:28:18;;;;;;;7.97;6.93;;;2.00;74.00;;;;;;5035677;28;20199;-90
2022/03/05 05:30:44;;;;;;;10.63;7.17;;;2.00;74.30;;;;;;5016391;28;20203;-87
2022/03/05 05:33:10;;;;;;;8.33;7.40;;;1.90;74.50;;;;;;4999072;28;20642;-86
2022/03/05 05:35:36;;;;;;;8.17;7.13;;;2.00;74.30;;;;;;5035137;28;20193;-85
2022/03/05 05:38:02;;;;;;;8.30;7.10;;;2.00;74.30;;;;;;5033781;28;20175;-92
2022/03/05 05:40:27;;;;;;;8.50;6.87;;;2.00;74.20;;;;;;5038340;28;20201;-90
2022/03/05 05:42:53;;;;;;;8.43;7.03;;;2.00;74.10;;;;;;5033944;28;20205;-86
2022/03/05 05:45:19;;;;;;;8.53;6.70;;;2.00;74.20;;;;;;5037821;28;20247;-90
2022/03/05 05:47:45;;;;;;;8.33;7.43;;;2.00;74.30;;;;;;5038870;28;20198;-91
2022/03/05 05:50:10;;;;;;;8.07;7.17;;;2.00;74.40;;;;;;5038469;28;20600;-91
2022/03/05 05:52:38;;;;;;;7.77;6.87;;;2.00;74.50;;;;;;5038985;28;20175;-89
2022/03/05 05:55:04;;;;;;;8.60;6.57;;;2.10;73.80;;;;;;5038309;28;20179;-86
2022/03/05 05:57:30;;;;;;;7.87;7.07;;;2.20;73.90;;;;;;5021664;28;20187;-90
2022/03/05 05:59:55;;;;;;;9.93;7.00;;;2.10;74.70;;;;;;5020701;28;20184;-93
2022/03/05 06:02:22;;;;;;;8.30;6.83;;;2.10;75.10;;;;;;5053805;28;20207;-91
2022/03/05 06:04:47;;;;;;;9.70;6.80;;;2.10;74.80;;;;;;5053971;28;20192;-86
2022/03/05 06:07:13;;;;;;;9.20;7.67;;;2.10;73.50;;;;;;5056803;28;20193;-84
2022/03/05 06:09:39;;;;;;;8.30;6.87;;;2.10;73.30;;;;;;5051377;28;20180;-88
2022/03/05 06:12:05;;;;;;;9.93;7.23;;;2.10;73.70;;;;;;5033358;28;20180;-94
2022/03/05 06:14:31;;;;;;;7.50;6.60;;;2.20;74.00;;;;;;5024786;28;20240;-94
2022/03/05 06:16:56;;;;;;;8.67;7.10;;;2.20;73.00;;;;;;5021303;28;20187;-91
2022/03/05 06:19:22;;;;;;;7.80;7.00;;;2.20;73.80;;;;;;5022736;28;20175;-90
2022/03/05 06:21:48;;;;;;;8.37;6.90;;;2.20;73.50;;;;;;5039721;28;20219;-89
2022/03/05 06:24:14;;;;;;;7.40;6.70;;;2.30;73.70;;;;;;5022147;28;20176;-89
2022/03/05 06:26:39;;;;;;;8.67;7.17;;;2.30;73.30;;;;;;5043486;28;20187;-85
2022/03/05 06:29:05;;;;;;;14.00;8.93;;;2.30;73.70;;;;;;5040176;28;20535;-88
2022/03/05 06:31:31;;;;;;;9.33;6.80;;;2.50;73.50;;;;;;5038667;28;20253;-89
2022/03/05 06:33:57;;;;;;;9.20;7.30;;;2.60;73.70;;;;;;5020569;28;20179;-92
2022/03/05 06:36:23;;;;;;;7.73;6.93;;;2.60;73.20;;;;;;5039367;28;20242;-92
2022/03/05 06:38:48;;;;;;;8.13;6.83;;;2.70;73.00;;;;;;5022633;28;20207;-92
2022/03/05 06:41:14;;;;;;;8.93;7.50;;;2.70;72.60;;;;;;5038193;28;20211;-94
2022/03/05 06:43:40;;;;;;;9.03;6.87;;;2.70;72.70;;;;;;5037244;28;20176;-92
2022/03/05 06:46:06;;;;;;;7.90;6.97;;;2.80;72.70;;;;;;5037502;28;20184;-86
2022/03/05 06:48:32;;;;;;;8.97;7.33;;;2.90;72.90;;;;;;5038540;28;20173;-85
2022/03/05 06:50:58;;;;;;;12.77;7.33;;;2.90;73.30;;;;;;5044708;28;20183;-88
2022/03/05 06:53:24;;;;;;;11.80;7.30;;;3.00;72.50;;;;;;5044448;28;20211;-85
2022/03/05 06:55:50;;;;;;;8.73;7.63;;;3.00;72.60;;;;;;5043704;28;20179;-85
2022/03/05 06:58:17;;;;;;;10.30;8.00;;;3.20;72.80;;;;;;5020679;28;20232;-87
2022/03/05 07:00:43;;;;;;;9.10;7.20;;;3.20;72.20;;;;;;5038219;28;20210;-85
2022/03/05 07:03:09;;;;;;;8.93;7.30;;;3.30;71.40;;;;;;5019823;28;20184;-86
2022/03/05 07:05:35;;;;;;;8.40;7.23;;;3.30;71.00;;;;;;5018648;28;20543;-85
2022/03/05 07:08:03;;;;;;;8.97;7.30;;;3.30;70.50;;;;;;5038447;28;20536;-88
2022/03/05 07:10:29;;;;;;;6.87;6.10;;;3.30;70.60;;;;;;5037417;28;20621;-88
2022/03/05 07:12:55;;;;;;;7.30;6.40;;;3.50;70.20;;;;;;5041395;28;20172;-89
2022/03/05 07:15:20;;;;;;;9.33;6.60;;;3.40;69.70;;;;;;5033813;28;20192;-87
2022/03/05 07:17:48;;;;;;;7.47;6.67;;;3.40;69.70;;;;;;5019422;28;20193;-87
2022/03/05 07:20:15;;;;;;;8.07;6.40;;;3.40;69.60;;;;;;5016486;28;20176;-85
2022/03/05 07:22:42;;;;;;;8.30;6.63;;;3.50;69.70;;;;;;5017360;28;20181;-91
2022/03/05 07:25:09;;;;;;;8.10;6.97;;;3.60;69.50;;;;;;5018126;28;20237;-89
2022/03/05 07:27:35;;;;;;;7.90;6.93;;;3.70;69.70;;;;;;5019037;28;20199;-93
2022/03/05 07:30:02;;;;;;;8.17;7.30;;;3.60;69.00;;;;;;5016955;28;20176;-92
2022/03/05 07:32:29;;;;;;;9.20;6.90;;;3.70;69.40;;;;;;4988392;28;20283;-89
2022/03/05 07:34:54;;;;;;;8.23;7.40;;;3.80;69.30;;;;;;4996619;28;20182;-87
2022/03/05 07:37:20;;;;;;;8.03;7.17;;;3.90;69.00;;;;;;4998250;28;20182;-85
2022/03/05 07:39:46;;;;;;;7.67;6.87;;;3.90;68.00;;;;;;4999142;28;20192;-85
2022/03/05 07:42:12;;;;;;;8.90;6.70;;;4.00;67.90;;;;;;4983073;28;20218;-92
2022/03/05 07:44:37;;;;;;;8.20;6.90;;;4.10;67.60;;;;;;5003858;28;20174;-86
2022/03/05 07:47:04;;;;;;;13.57;10.50;;;4.10;67.50;;;;;;5008532;28;20188;-86
2022/03/05 07:49:30;;;;;;;14.23;10.07;;;4.20;70.00;;;;;;4993768;28;20189;-86
2022/03/05 07:51:56;;;;;;;13.37;10.07;;;4.40;70.70;;;;;;5014626;28;20191;-85
2022/03/05 07:54:24;;;;;;;13.27;9.93;;;4.60;71.10;;;;;;5014714;28;20178;-92
2022/03/05 07:56:53;;;;;;;14.07;9.43;;;4.60;71.30;;;;;;5005477;28;20661;-93
2022/03/05 07:59:18;;;;;;;13.97;10.43;;;4.80;71.40;;;;;;5002052;28;20177;-88
2022/03/05 08:01:44;;;;;;;11.57;9.47;;;4.90;71.00;;;;;;5000405;28;20211;-90
2022/03/05 08:04:10;;;;;;;12.67;9.60;;;5.10;70.00;;;;;;4998108;28;20190;-89
2022/03/05 08:06:37;;;;;;;9.60;7.50;;;5.20;69.30;;;;;;4996652;28;20193;-88
2022/03/05 08:09:06;;;;;;;7.63;6.90;;;5.30;68.10;;;;;;5000423;28;20177;-91
2022/03/05 08:11:31;;;;;;;6.70;6.00;;;5.20;66.70;;;;;;4997963;28;20676;-91
2022/03/05 08:13:57;;;;;;;7.23;6.13;;;5.10;66.30;;;;;;4977593;28;20173;-88
2022/03/05 08:16:23;;;;;;;8.67;6.37;;;5.10;66.50;;;;;;4994610;28;20185;-86
2022/03/05 08:18:49;;;;;;;6.77;6.17;;;4.90;67.10;;;;;;4995468;28;20177;-88
2022/03/05 08:21:14;;;;;;;9.70;6.67;;;4.90;67.00;;;;;;4994383;28;20262;-86
2022/03/05 08:23:43;;;;;;;6.63;5.97;;;4.80;67.40;;;;;;4976797;28;20215;-85
2022/03/05 08:26:13;;;;;;;8.73;7.20;;;4.90;67.40;;;;;;4993403;28;20191;-84
2022/03/05 08:28:41;;;;;;;7.00;6.13;;;5.00;67.30;;;;;;4996041;28;20252;-87
2022/03/05 08:31:06;;;;;;;7.47;6.70;;;5.10;67.30;;;;;;4976516;28;20220;-84
2022/03/05 08:33:32;;;;;;;7.20;6.50;;;5.20;66.90;;;;;;5012082;28;20225;-85
2022/03/05 08:35:58;;;;;;;7.53;6.73;;;5.30;67.10;;;;;;5019091;28;20237;-84
2022/03/05 08:38:24;;;;;;;7.23;6.43;;;5.40;69.20;;;;;;5020164;28;20252;-87
2022/03/05 08:40:50;;;;;;;7.60;6.67;;;5.40;67.20;;;;;;5024907;28;20208;-85
2022/03/05 08:43:16;;;;;;;23.63;6.47;;;5.40;67.90;;;;;;5017992;28;20193;-84
2022/03/05 08:45:42;;;;;;;7.57;6.77;;;5.20;68.30;;;;;;4996265;28;20181;-85
2022/03/05 08:48:08;;;;;;;6.93;6.23;;;5.20;69.40;;;;;;5015165;28;20180;-87
2022/03/05 08:50:35;;;;;;;7.57;6.77;;;5.20;68.90;;;;;;4999569;28;20187;-86
2022/03/05 08:53:02;;;;;;;7.60;6.87;;;5.20;70.10;;;;;;5014597;28;20170;-87
2022/03/05 08:55:28;;;;;;;9.50;7.50;;;5.30;69.30;;;;;;5015115;28;20173;-87
2022/03/05 08:57:55;;;;;;;7.57;6.53;;;5.50;68.90;;;;;;4999177;28;20773;-88
2022/03/05 09:00:21;;;;;;;7.23;6.53;;;5.40;69.20;;;;;;4997493;28;20173;-86
2022/03/05 09:02:46;;;;;;;7.90;6.87;;;5.50;68.80;;;;;;4999369;28;20243;-86
2022/03/05 09:05:14;;;;;;;8.77;7.80;;;5.40;69.00;;;;;;4998383;28;20176;-86
2022/03/05 09:07:41;;;;;;;8.10;7.27;;;5.50;69.30;;;;;;5014549;28;20668;-86
2022/03/05 09:10:08;;;;;;;10.37;8.20;;;5.50;69.20;;;;;;5014575;28;20634;-89
2022/03/05 09:12:34;;;;;;;8.87;7.30;;;5.50;69.10;;;;;;5016653;28;20179;-88
2022/03/05 09:15:00;;;;;;;8.67;7.07;;;5.40;69.50;;;;;;5005302;28;20687;-88
2022/03/05 09:17:26;;;;;;;9.20;7.97;;;5.40;69.80;;;;;;5001433;28;20186;-88
2022/03/05 09:19:53;;;;;;;9.37;7.30;;;5.40;69.90;;;;;;5005235;28;20592;-93
2022/03/05 09:22:20;;;;;;;8.03;6.53;;;5.60;69.50;;;;;;5004845;28;20588;-88
2022/03/05 09:24:45;;;;;;;8.23;7.43;;;5.50;69.00;;;;;;5021030;28;20238;-87
2022/03/05 09:27:11;;;;;;;8.30;7.50;;;5.50;69.60;;;;;;5020016;28;20601;-89
2022/03/05 09:29:38;;;;;;;8.97;7.80;;;5.50;69.80;;;;;;5006081;28;20187;-89
2022/03/05 09:32:04;;;;;;;8.13;7.33;;;5.50;70.00;;;;;;5026797;28;20221;-89
2022/03/05 09:34:34;;;;;;;10.27;7.87;;;5.60;69.40;;;;;;5033536;28;20166;-89
2022/03/05 09:37:00;;;;;;;8.77;7.50;;;5.60;69.60;;;;;;5034707;28;20208;-90
2022/03/05 09:39:26;;;;;;;9.23;8.20;;;5.40;69.50;;;;;;5039884;28;20193;-89
2022/03/05 09:41:54;;;;;;;9.23;7.60;;;5.60;70.20;;;;;;5039357;28;20213;-90
2022/03/05 09:44:19;;;;;;;8.73;7.80;;;5.70;69.50;;;;;;5009966;28;20176;-84
2022/03/05 09:46:46;;;;;;;10.17;8.40;;;5.80;68.80;;;;;;5001454;28;20183;-85
2022/03/05 09:49:13;;;;;;;9.67;7.97;;;5.80;68.90;;;;;;5016970;28;20196;-87
2022/03/05 09:51:38;;;;;;;10.63;8.40;;;5.70;68.80;;;;;;5002299;28;20210;-94
2022/03/05 09:54:04;;;;;;;9.63;8.20;;;5.60;69.00;;;;;;5025025;28;20186;-89
2022/03/05 09:56:30;;;;;;;11.60;8.60;;;5.70;69.20;;;;;;5030730;28;20168;-86
2022/03/05 09:58:56;;;;;;;10.20;8.33;;;5.90;69.50;;;;;;5031298;28;20215;-91
2022/03/05 10:01:22;;;;;;;10.23;8.90;;;5.90;69.20;;;;;;5023493;28;20211;-90
2022/03/05 10:03:51;;;;;;;11.70;9.20;;;5.90;68.90;;;;;;5027840;28;20201;-86
2022/03/05 10:06:27;;;;;;;11.00;9.53;;;5.90;69.00;;;;;;5025318;28;20202;-87
2022/03/05 10:08:55;;;;;;;9.87;8.53;;;6.00;69.20;;;;;;5022499;28;20518;-90
2022/03/05 10:11:24;;;;;;;11.23;9.27;;;5.90;68.50;;;;;;5020055;28;20173;-88
2022/03/05 10:13:50;;;;;;;13.37;9.20;;;5.90;69.00;;;;;;5021430;28;20196;-88
2022/03/05 10:16:29;;;;;;;12.00;9.93;;;5.80;69.00;;;;;;5001670;28;20658;-94
2022/03/05 10:18:56;;;;;;;11.17;9.70;;;5.70;69.20;;;;;;5007036;28;20282;-92
2022/03/05 10:21:30;;;;;;;13.77;10.30;;;5.50;69.40;;;;;;5010837;28;20269;-88
2022/03/05 10:24:09;;;;;;;12.57;10.00;;;5.40;70.20;;;;;;5033311;28;20182;-88
2022/03/05 10:26:55;;;;;;;13.40;10.80;;;5.20;70.80;;;;;;5036535;28;20234;-87
2022/03/05 10:29:34;;;;;;;9.07;7.83;;;5.20;71.30;;;;;;5023952;28;20282;-87
2022/03/05 10:32:05;;;;;;;8.20;6.90;;;5.10;73.70;;;;;;5019979;28;20231;-91
2022/03/05 10:34:52;;;;;;;9.43;7.07;;;4.70;76.30;;;;;;5021776;28;20171;-91
2022/03/05 10:37:19;;;;;;;8.30;6.80;;;4.40;78.00;;;;;;5001153;28;20215;-92
2022/03/05 10:39:47;;;;;;;8.40;7.50;;;4.30;78.90;;;;;;5001722;28;20191;-87
2022/03/05 10:42:21;;;;;;;9.00;7.10;;;4.30;79.80;;;;;;5020766;28;20209;-90
2022/03/05 10:45:08;;;;;;;9.67;7.07;;;4.30;80.90;;;;;;5019278;28;20176;-89
2022/03/05 10:47:39;;;;;;;7.90;7.20;;;4.20;81.70;;;;;;5018271;28;20187;-94
2022/03/05 10:50:15;;;;;;;8.13;7.33;;;4.00;81.90;;;;;;5018606;28;20181;-94
2022/03/05 10:52:48;;;;;;;9.17;7.30;;;4.20;81.20;;;;;;5018211;28;20262;-92
2022/03/05 10:55:22;;;;;;;10.47;7.60;;;4.20;80.30;;;;;;5017605;28;20169;-91
2022/03/05 10:58:06;;;;;;;8.57;7.63;;;4.30;80.30;;;;;;5002156;28;20177;-91
2022/03/05 11:00:32;;;;;;;9.03;7.80;;;4.40;79.50;;;;;;5017274;28;20180;-89
2022/03/05 11:03:00;;;;;;;8.80;7.67;;;4.50;78.80;;;;;;5018840;28;20701;-90
2022/03/05 11:05:26;;;;;;;8.20;6.87;;;4.70;77.50;;;;;;5001862;28;20529;-85
2022/03/05 11:07:53;;;;;;;8.30;7.30;;;4.80;76.00;;;;;;5015778;28;20224;-89
2022/03/05 11:10:21;;;;;;;7.97;7.17;;;4.80;75.60;;;;;;4998426;28;20183;-88
2022/03/05 11:12:51;;;;;;;8.83;7.20;;;4.90;76.00;;;;;;5006416;28;20666;-86
2022/03/05 11:15:18;;;;;;;8.33;6.97;;;5.10;75.70;;;;;;5002671;28;20179;-85
2022/03/05 11:17:46;;;;;;;9.23;7.70;;;5.20;75.40;;;;;;5018873;28;20224;-90
2022/03/05 11:20:13;;;;;;;7.97;7.10;;;5.50;75.00;;;;;;5005406;28;20197;-89
2022/03/05 11:22:41;;;;;;;8.57;7.67;;;5.70;73.90;;;;;;5032444;28;20199;-85
2022/03/05 11:25:12;;;;;;;8.53;6.97;;;5.60;73.50;;;;;;5036052;28;20176;-86
2022/03/05 11:27:38;;;;;;;9.10;7.43;;;5.50;73.60;;;;;;5029475;28;20164;-84
2022/03/05 11:30:06;;;;;;;7.30;6.40;;;5.40;73.80;;;;;;4999803;28;20633;-90
2022/03/05 11:32:38;;;;;;;9.90;6.93;;;5.30;71.60;;;;;;5015832;28;20246;-88
2022/03/05 11:35:22;;;;;;;7.80;6.50;;;4.90;70.90;;;;;;4997764;28;20184;-85
2022/03/05 11:37:50;;;;;;;7.53;6.43;;;4.80;71.50;;;;;;5015656;28;20631;-87
2022/03/05 11:40:38;;;;;;;6.90;6.20;;;4.70;71.70;;;;;;5014138;28;20186;-91
2022/03/05 11:43:25;;;;;;;8.13;6.30;;;4.50;72.80;;;;;;5014785;28;20176;-86
2022/03/05 11:46:04;;;;;;;7.23;6.53;;;4.50;73.70;;;;;;5015114;28;20169;-86
2022/03/05 11:48:36;;;;;;;8.93;7.63;;;4.40;74.40;;;;;;5015212;28;20202;-92
2022/03/05 11:51:12;;;;;;;7.83;6.60;;;4.30;75.80;;;;;;5015522;28;20173;-92
2022/03/05 11:53:40;;;;;;;8.13;6.63;;;4.20;76.10;;;;;;4997699;28;20642;-93
2022/03/05 11:56:23;;;;;;;7.23;6.53;;;4.20;76.50;;;;;;5015314;28;20199;-90
2022/03/05 11:58:49;;;;;;;7.70;6.70;;;4.10;75.80;;;;;;5018005;28;20181;-86
2022/03/05 12:01:36;;;;;;;7.00;6.30;;;4.10;74.30;;;;;;5020001;28;20255;-86
2022/03/05 12:04:22;;;;;;;6.53;5.93;;;4.10;74.20;;;;;;5000645;28;20169;-88
2022/03/05 12:06:53;;;;;;;7.13;6.43;;;4.20;72.00;;;;;;5020668;28;20191;-85
2022/03/05 12:09:42;;;;;;;7.97;6.67;;;4.40;72.20;;;;;;5023716;28;20234;-85
2022/03/05 12:12:13;;;;;;;8.57;6.83;;;4.60;71.70;;;;;;5025668;28;20183;-91
2022/03/05 12:15:06;;;;;;;7.33;6.63;;;4.90;70.80;;;;;;5020468;28;20185;-90
2022/03/05 12:17:51;;;;;;;6.83;6.23;;;5.00;69.70;;;;;;5015586;28;20211;-92
2022/03/05 12:20:22;;;;;;;7.00;6.30;;;5.10;69.60;;;;;;5015328;28;20188;-92
2022/03/05 12:22:52;;;;;;;7.27;6.23;;;5.30;69.00;;;;;;5014981;28;20174;-90
2022/03/05 12:25:18;;;;;;;7.90;6.97;;;5.40;68.40;;;;;;5014591;28;20208;-93
2022/03/05 12:27:52;;;;;;;7.47;6.70;;;5.60;68.10;;;;;;4997062;28;20181;-93
2022/03/05 12:30:31;;;;;;;6.93;6.23;;;5.70;67.90;;;;;;5014159;28;20181;-93
2022/03/05 12:33:02;;;;;;;7.63;6.63;;;5.80;67.90;;;;;;5015332;28;20227;-89
2022/03/05 12:35:28;;;;;;;7.77;7.07;;;5.90;67.30;;;;;;5013911;28;20227;-87
2022/03/05 12:37:55;;;;;;;8.00;7.20;;;6.10;67.00;;;;;;4996408;28;20224;-84
2022/03/05 12:40:24;;;;;;;9.67;8.17;;;6.20;66.50;;;;;;5013110;28;20196;-86
2022/03/05 12:42:52;;;;;;;7.20;6.50;;;6.10;65.40;;;;;;5013526;28;20265;-87
2022/03/05 12:45:27;;;;;;;9.20;7.60;;;6.00;63.60;;;;;;4996480;28;20174;-88
2022/03/05 12:47:59;;;;;;;9.83;8.00;;;5.90;64.00;;;;;;5015265;28;20164;-90
2022/03/05 12:50:36;;;;;;;7.67;6.97;;;6.00;64.10;;;;;;4997725;28;20176;-94
2022/03/05 12:53:31;;;;;;;8.37;7.47;;;6.10;63.40;;;;;;5017269;28;20251;-92
2022/03/05 12:55:59;;;;;;;7.87;6.70;;;6.00;63.40;;;;;;5019660;28;20182;-88
2022/03/05 12:58:33;;;;;;;8.97;7.43;;;6.00;62.80;;;;;;5020407;28;20247;-89